Time;durP1;ratioP1;P1;durP2;ratioP2;P2;SDS_P1;SDS_P2;PMS_P1;PMS_P2;Temp;Humidity;BMP_temperature;BMP_pressure;BME280_temperature;BME280_humidity;BME280_pressure;Samples;Min_cycle;Max_cycle;Signal;HPM_P1;HPM_P2
2022/01/11 00:01:22;;;;;;;87.78;19.05;;;;;;;;;;5097590;28;20320;-68
2022/01/11 00:03:49;;;;;;;83.03;18.73;;;;;;;;;;5098006;28;20235;-68
2022/01/11 00:06:21;;;;;;;85.88;18.40;;;;;;;;;;5096729;28;20211;-68
2022/01/11 00:08:50;;;;;;;86.75;19.70;;;;;;;;;;5115892;28;20292;-68
2022/01/11 00:11:17;;;;;;;83.93;18.77;;;;;;;;;;5114826;28;20276;-68
2022/01/11 00:13:44;;;;;;;85.30;18.85;;;;;;;;;;5114554;28;20242;-68
2022/01/11 00:16:14;;;;;;;80.18;18.15;;;;;;;;;;5114878;28;20218;-68
2022/01/11 00:18:41;;;;;;;84.35;18.25;;;;;;;;;;5114845;28;20709;-68
2022/01/11 00:21:08;;;;;;;88.72;16.88;;;;;;;;;;5115095;28;20593;-68
2022/01/11 00:26:27;;;;;;;83.00;17.85;;;;;;;;;;5098400;28;20205;-68
2022/01/11 00:28:54;;;;;;;81.70;17.48;;;;;;;;;;5113229;28;20668;-68
2022/01/11 00:31:21;;;;;;;90.75;20.48;;;;;;;;;;5114529;28;20221;-68
2022/01/11 00:33:50;;;;;;;83.70;18.45;;;;;;;;;;5114353;28;20220;-68
2022/01/11 00:36:17;;;;;;;83.65;19.48;;;;;;;;;;5114386;28;20204;-68
2022/01/11 00:38:46;;;;;;;86.72;19.42;;;;;;;;;;5111957;27;20295;-68
2022/01/11 00:41:14;;;;;;;79.28;16.73;;;;;;;;;;5114260;28;20228;-68
2022/01/11 00:43:42;;;;;;;91.55;18.15;;;;;;;;;;5114104;28;20209;-68
2022/01/11 00:46:10;;;;;;;88.53;21.73;;;;;;;;;;5114284;28;20295;-68
2022/01/11 00:48:39;;;;;;;89.75;20.48;;;;;;;;;;5114082;28;20234;-68
2022/01/11 00:51:07;;;;;;;85.30;19.48;;;;;;;;;;5114048;28;20224;-68
2022/01/11 00:53:34;;;;;;;83.40;19.67;;;;;;;;;;5114222;28;20383;-68
2022/01/11 00:56:02;;;;;;;82.93;18.42;;;;;;;;;;5114186;28;20676;-68
2022/01/11 00:58:30;;;;;;;88.00;19.90;;;;;;;;;;5113657;28;20672;-68
2022/01/11 01:00:57;;;;;;;80.18;17.88;;;;;;;;;;5113916;28;20295;-68
2022/01/11 01:03:24;;;;;;;83.07;17.63;;;;;;;;;;5113866;28;20291;-68
2022/01/11 01:05:52;;;;;;;82.55;18.85;;;;;;;;;;5113675;28;20211;-68
2022/01/11 01:08:19;;;;;;;82.15;17.88;;;;;;;;;;5113607;27;20592;-68
2022/01/11 01:10:47;;;;;;;88.38;18.52;;;;;;;;;;5098995;28;20559;-68
2022/01/11 01:13:18;;;;;;;86.93;18.60;;;;;;;;;;5093344;28;20630;-68
2022/01/11 01:15:47;;;;;;;85.88;18.83;;;;;;;;;;5093287;28;20660;-68
2022/01/11 01:18:16;;;;;;;88.57;18.40;;;;;;;;;;5092858;28;20216;-68
2022/01/11 01:20:43;;;;;;;81.70;18.80;;;;;;;;;;5093100;28;20304;-68
2022/01/11 01:23:10;;;;;;;80.18;18.92;;;;;;;;;;5093280;28;20205;-68
2022/01/11 01:25:37;;;;;;;87.10;18.83;;;;;;;;;;5092971;28;20239;-68
2022/01/11 01:28:05;;;;;;;83.00;19.50;;;;;;;;;;5092718;28;20201;-68
2022/01/11 01:30:34;;;;;;;79.65;18.15;;;;;;;;;;5092904;28;20244;-67
2022/01/11 01:33:01;;;;;;;82.05;18.60;;;;;;;;;;5092657;28;20607;-68
2022/01/11 01:35:33;;;;;;;78.32;16.35;;;;;;;;;;5093046;28;20335;-68
2022/01/11 01:38:00;;;;;;;78.45;17.73;;;;;;;;;;5092723;28;20211;-68
2022/01/11 01:40:35;;;;;;;82.28;17.90;;;;;;;;;;5092828;28;20646;-68
2022/01/11 01:43:02;;;;;;;81.68;17.80;;;;;;;;;;5091437;28;20220;-68
2022/01/11 01:45:30;;;;;;;81.20;16.95;;;;;;;;;;5092557;28;20233;-68
2022/01/11 01:47:59;;;;;;;86.43;19.02;;;;;;;;;;5092611;28;20208;-68
2022/01/11 01:50:26;;;;;;;89.88;18.23;;;;;;;;;;5092782;28;20250;-68
2022/01/11 01:52:53;;;;;;;77.00;17.35;;;;;;;;;;5092473;28;20311;-68
2022/01/11 01:55:21;;;;;;;89.95;18.00;;;;;;;;;;5092548;28;20221;-68
2022/01/11 01:57:48;;;;;;;84.80;18.42;;;;;;;;;;5092235;28;20262;-68
2022/01/11 02:00:15;;;;;;;82.18;17.80;;;;;;;;;;5092687;28;20201;-68
2022/01/11 02:02:42;;;;;;;79.28;16.67;;;;;;;;;;5092236;28;20256;-68
2022/01/11 02:05:11;;;;;;;90.38;19.23;;;;;;;;;;5092559;28;20576;-68
2022/01/11 02:07:38;;;;;;;84.13;17.98;;;;;;;;;;5092051;28;20236;-68
2022/01/11 02:10:07;;;;;;;76.05;15.75;;;;;;;;;;5092266;28;20728;-68
2022/01/11 02:12:34;;;;;;;81.35;17.60;;;;;;;;;;5090557;28;20238;-68
2022/01/11 02:15:02;;;;;;;84.03;17.90;;;;;;;;;;5092577;28;20225;-68
2022/01/11 02:17:29;;;;;;;82.82;17.27;;;;;;;;;;5089941;28;20236;-68
2022/01/11 02:19:56;;;;;;;73.10;14.20;;;;;;;;;;5092121;28;20204;-68
2022/01/11 02:22:25;;;;;;;83.05;18.38;;;;;;;;;;5091859;28;20312;-68
2022/01/11 02:24:53;;;;;;;81.55;17.13;;;;;;;;;;5092077;28;20205;-68
2022/01/11 02:27:20;;;;;;;81.97;17.85;;;;;;;;;;5091961;28;20201;-68
2022/01/11 02:29:47;;;;;;;82.35;18.13;;;;;;;;;;5092125;28;20669;-68
2022/01/11 02:32:14;;;;;;;88.28;19.40;;;;;;;;;;5092019;28;20235;-68
2022/01/11 02:34:42;;;;;;;90.85;19.77;;;;;;;;;;5091748;28;20726;-68
2022/01/11 02:37:09;;;;;;;80.68;16.77;;;;;;;;;;5092065;28;20211;-68
2022/01/11 02:39:37;;;;;;;87.63;19.50;;;;;;;;;;5091885;28;20215;-68
2022/01/11 02:42:05;;;;;;;82.95;19.20;;;;;;;;;;5092292;28;20233;-68
2022/01/11 02:44:32;;;;;;;87.18;19.02;;;;;;;;;;5089957;28;20212;-68
2022/01/11 02:46:59;;;;;;;80.65;17.23;;;;;;;;;;5091867;28;20753;-68
2022/01/11 02:49:27;;;;;;;88.38;21.13;;;;;;;;;;5091770;28;20201;-68
2022/01/11 02:51:54;;;;;;;86.78;19.88;;;;;;;;;;5094683;28;20228;-68
2022/01/11 02:54:21;;;;;;;89.22;18.75;;;;;;;;;;5095928;28;20311;-68
2022/01/11 02:56:50;;;;;;;80.60;18.33;;;;;;;;;;5096003;28;20260;-68
2022/01/11 02:59:17;;;;;;;83.57;18.25;;;;;;;;;;5095723;28;20292;-68
2022/01/11 03:01:44;;;;;;;82.82;19.77;;;;;;;;;;5095678;28;20764;-68
2022/01/11 03:04:12;;;;;;;84.07;18.10;;;;;;;;;;5095907;28;20721;-68
2022/01/11 03:06:39;;;;;;;93.32;20.50;;;;;;;;;;5096005;28;20205;-68
2022/01/11 03:09:06;;;;;;;83.40;19.13;;;;;;;;;;5095703;28;20213;-68
2022/01/11 03:11:34;;;;;;;85.40;18.20;;;;;;;;;;5095749;28;20224;-68
2022/01/11 03:14:04;;;;;;;90.18;18.88;;;;;;;;;;5095792;28;20208;-68
2022/01/11 03:16:31;;;;;;;87.18;18.75;;;;;;;;;;5101092;28;20226;-68
2022/01/11 03:18:59;;;;;;;81.90;18.88;;;;;;;;;;5116069;28;20634;-68
2022/01/11 03:21:28;;;;;;;85.22;18.55;;;;;;;;;;5116072;28;20262;-68
2022/01/11 03:23:57;;;;;;;80.00;17.67;;;;;;;;;;5115823;28;20237;-68
2022/01/11 03:26:24;;;;;;;86.40;18.60;;;;;;;;;;5115904;28;20232;-68
2022/01/11 03:28:51;;;;;;;88.32;20.45;;;;;;;;;;5115444;28;20291;-68
2022/01/11 03:31:23;;;;;;;90.57;18.88;;;;;;;;;;5115718;28;20314;-68
2022/01/11 03:33:50;;;;;;;91.32;18.52;;;;;;;;;;5115905;28;20299;-68
2022/01/11 03:36:17;;;;;;;81.22;18.30;;;;;;;;;;5115940;28;20771;-68
2022/01/11 03:38:44;;;;;;;90.15;19.33;;;;;;;;;;5115367;28;20204;-68
2022/01/11 03:41:12;;;;;;;89.38;19.63;;;;;;;;;;5115492;27;20315;-67
2022/01/11 03:43:40;;;;;;;83.65;17.85;;;;;;;;;;5115447;28;20276;-68
2022/01/11 03:46:07;;;;;;;80.53;19.05;;;;;;;;;;5115588;28;20287;-68
2022/01/11 03:48:35;;;;;;;94.55;19.67;;;;;;;;;;5113788;28;20215;-68
2022/01/11 03:51:03;;;;;;;80.22;17.30;;;;;;;;;;5115274;28;20294;-68
2022/01/11 03:53:38;;;;;;;84.32;17.98;;;;;;;;;;5115243;28;20577;-68
2022/01/11 03:56:21;;;;;;;90.28;18.42;;;;;;;;;;5115154;28;20289;-68
2022/01/11 03:58:49;;;;;;;82.38;17.58;;;;;;;;;;5115064;27;20205;-68
2022/01/11 04:01:16;;;;;;;84.35;18.63;;;;;;;;;;5115025;28;20239;-67
2022/01/11 04:03:45;;;;;;;102.38;20.05;;;;;;;;;;5115200;27;20212;-68
2022/01/11 04:06:16;;;;;;;83.32;18.63;;;;;;;;;;5115165;28;20204;-68
2022/01/11 04:08:43;;;;;;;86.85;20.10;;;;;;;;;;5114895;28;20210;-68
2022/01/11 04:11:11;;;;;;;82.68;19.38;;;;;;;;;;5115360;27;20230;-68
2022/01/11 04:13:38;;;;;;;87.30;18.05;;;;;;;;;;5115066;28;20276;-68
2022/01/11 04:16:06;;;;;;;87.35;18.63;;;;;;;;;;5115026;28;20319;-68
2022/01/11 04:18:33;;;;;;;81.22;19.13;;;;;;;;;;5114464;28;20291;-68
2022/01/11 04:21:01;;;;;;;93.68;21.17;;;;;;;;;;5112896;28;20211;-68
2022/01/11 04:23:28;;;;;;;85.40;20.70;;;;;;;;;;5114776;28;20215;-68
2022/01/11 04:25:56;;;;;;;80.88;17.20;;;;;;;;;;5115026;28;20295;-68
2022/01/11 04:28:25;;;;;;;84.93;20.25;;;;;;;;;;5114948;28;20200;-68
2022/01/11 04:30:52;;;;;;;80.65;18.83;;;;;;;;;;5114558;28;20613;-67
2022/01/11 04:33:20;;;;;;;80.70;20.17;;;;;;;;;;5114470;28;20209;-68
2022/01/11 04:35:48;;;;;;;82.13;18.65;;;;;;;;;;5114558;28;20227;-68
2022/01/11 04:38:17;;;;;;;84.85;18.48;;;;;;;;;;5114489;28;20261;-68
2022/01/11 04:40:46;;;;;;;87.78;17.85;;;;;;;;;;5114676;28;20209;-68
2022/01/11 04:43:13;;;;;;;83.65;18.58;;;;;;;;;;5114581;28;20295;-68
2022/01/11 04:45:40;;;;;;;85.03;18.50;;;;;;;;;;5114478;28;20208;-68
2022/01/11 04:48:08;;;;;;;82.20;17.10;;;;;;;;;;5114071;28;20309;-68
2022/01/11 04:50:36;;;;;;;81.20;15.43;;;;;;;;;;5107781;28;20577;-68
2022/01/11 04:53:03;;;;;;;88.88;18.50;;;;;;;;;;5093690;28;20774;-68
2022/01/11 04:55:31;;;;;;;81.60;19.02;;;;;;;;;;5093774;28;20308;-68
2022/01/11 04:58:01;;;;;;;85.15;19.65;;;;;;;;;;5093449;28;20212;-68
2022/01/11 05:00:28;;;;;;;83.47;19.52;;;;;;;;;;5093574;28;20677;-68
2022/01/11 05:02:59;;;;;;;88.38;19.52;;;;;;;;;;5093844;28;20232;-68
2022/01/11 05:05:27;;;;;;;87.95;20.08;;;;;;;;;;5093676;28;20240;-68
2022/01/11 05:07:55;;;;;;;90.78;21.00;;;;;;;;;;5093309;28;20587;-68
2022/01/11 05:10:23;;;;;;;84.10;18.02;;;;;;;;;;5093660;28;20205;-68
2022/01/11 05:12:50;;;;;;;80.75;18.10;;;;;;;;;;5093179;28;20225;-68
2022/01/11 05:15:19;;;;;;;83.07;18.50;;;;;;;;;;5092816;28;20707;-68
2022/01/11 05:17:46;;;;;;;86.07;19.80;;;;;;;;;;5092960;28;20715;-68
2022/01/11 05:20:14;;;;;;;92.15;19.02;;;;;;;;;;5093432;28;20233;-68
2022/01/11 05:22:42;;;;;;;82.07;18.73;;;;;;;;;;5092518;28;20227;-68
2022/01/11 05:25:11;;;;;;;85.70;20.45;;;;;;;;;;5093224;28;20296;-68
2022/01/11 05:27:38;;;;;;;83.20;18.58;;;;;;;;;;5092718;28;20231;-68
2022/01/11 05:30:06;;;;;;;84.10;20.33;;;;;;;;;;5093256;28;20650;-68
2022/01/11 05:32:35;;;;;;;82.85;19.55;;;;;;;;;;5093059;28;20273;-68
2022/01/11 05:35:02;;;;;;;96.47;21.73;;;;;;;;;;5093210;28;20600;-68
2022/01/11 05:37:29;;;;;;;88.22;20.98;;;;;;;;;;5092657;28;20211;-68
2022/01/11 05:39:58;;;;;;;81.95;19.05;;;;;;;;;;5093241;28;20219;-68
2022/01/11 05:42:25;;;;;;;83.85;20.02;;;;;;;;;;5092691;28;20228;-68
2022/01/11 05:44:52;;;;;;;82.63;18.05;;;;;;;;;;5092772;28;20300;-68
2022/01/11 05:47:20;;;;;;;85.35;20.67;;;;;;;;;;5092478;28;20205;-68
2022/01/11 05:49:48;;;;;;;85.15;20.08;;;;;;;;;;5092863;28;20201;-68
2022/01/11 05:52:15;;;;;;;84.55;20.65;;;;;;;;;;5092623;28;20242;-68
2022/01/11 05:54:42;;;;;;;88.22;20.20;;;;;;;;;;5091509;28;20212;-68
2022/01/11 05:57:10;;;;;;;84.63;19.48;;;;;;;;;;5092353;28;20319;-68
2022/01/11 05:59:37;;;;;;;91.65;21.00;;;;;;;;;;5092726;28;20490;-68
2022/01/11 06:02:04;;;;;;;85.57;20.65;;;;;;;;;;5092514;28;20232;-67
2022/01/11 06:04:31;;;;;;;86.63;18.02;;;;;;;;;;5092402;28;20204;-66
2022/01/11 06:07:00;;;;;;;85.88;17.90;;;;;;;;;;5092358;28;20203;-67
2022/01/11 06:09:28;;;;;;;78.82;16.58;;;;;;;;;;5092068;28;20740;-66
2022/01/11 06:11:55;;;;;;;85.47;18.38;;;;;;;;;;5092312;28;20225;-66
2022/01/11 06:14:22;;;;;;;81.40;19.20;;;;;;;;;;5092369;28;20211;-68
2022/01/11 06:16:49;;;;;;;84.13;19.15;;;;;;;;;;5092245;28;20220;-67
2022/01/11 06:19:17;;;;;;;84.57;19.10;;;;;;;;;;5092059;28;20209;-67
2022/01/11 06:21:44;;;;;;;85.15;19.58;;;;;;;;;;5092034;28;20792;-67
2022/01/11 06:24:12;;;;;;;86.72;21.15;;;;;;;;;;5091898;28;20720;-67
2022/01/11 06:26:41;;;;;;;85.13;19.10;;;;;;;;;;5108123;28;20201;-67
2022/01/11 06:29:08;;;;;;;87.78;21.30;;;;;;;;;;5112235;28;20201;-67
2022/01/11 06:31:35;;;;;;;87.57;19.55;;;;;;;;;;5112348;27;20314;-67
2022/01/11 06:34:03;;;;;;;85.15;18.45;;;;;;;;;;5112369;28;20290;-67
2022/01/11 06:36:30;;;;;;;85.68;19.77;;;;;;;;;;5112090;28;20234;-67
2022/01/11 06:38:57;;;;;;;87.85;19.23;;;;;;;;;;5112138;28;20200;-67
2022/01/11 06:41:26;;;;;;;86.40;19.08;;;;;;;;;;5112431;28;20224;-67
2022/01/11 06:43:54;;;;;;;83.90;19.42;;;;;;;;;;5112489;28;20221;-67
2022/01/11 06:46:23;;;;;;;85.97;19.50;;;;;;;;;;5112272;28;20208;-67
2022/01/11 06:48:51;;;;;;;83.95;18.83;;;;;;;;;;5111962;28;20204;-67
2022/01/11 06:51:18;;;;;;;90.80;21.35;;;;;;;;;;5112663;28;20220;-67
2022/01/11 06:53:45;;;;;;;93.03;20.70;;;;;;;;;;5112534;28;20206;-67
2022/01/11 06:56:13;;;;;;;94.15;21.13;;;;;;;;;;5109971;28;20224;-66
2022/01/11 06:58:41;;;;;;;96.32;21.20;;;;;;;;;;5091787;28;20230;-67
2022/01/11 07:01:08;;;;;;;84.47;18.88;;;;;;;;;;5091869;28;20317;-67
2022/01/11 07:03:35;;;;;;;92.18;19.75;;;;;;;;;;5091810;28;20658;-67
2022/01/11 07:06:03;;;;;;;85.80;19.63;;;;;;;;;;5091992;28;20201;-67
2022/01/11 07:08:30;;;;;;;84.72;19.63;;;;;;;;;;5091747;28;20212;-67
2022/01/11 07:10:57;;;;;;;100.13;22.70;;;;;;;;;;5091859;28;20292;-67
2022/01/11 07:13:24;;;;;;;89.68;21.83;;;;;;;;;;5091799;28;20204;-67
2022/01/11 07:15:53;;;;;;;82.28;19.83;;;;;;;;;;5091950;28;20224;-67
2022/01/11 07:18:20;;;;;;;88.90;19.70;;;;;;;;;;5091374;28;20687;-67
2022/01/11 07:20:47;;;;;;;88.85;19.50;;;;;;;;;;5091965;28;20211;-67
2022/01/11 07:23:14;;;;;;;83.78;18.17;;;;;;;;;;5091831;28;20639;-67
2022/01/11 07:25:41;;;;;;;90.18;19.63;;;;;;;;;;5091826;28;20296;-67
2022/01/11 07:28:11;;;;;;;91.88;18.83;;;;;;;;;;5089981;28;20211;-66
2022/01/11 07:30:38;;;;;;;88.38;21.00;;;;;;;;;;5091339;28;20201;-66
2022/01/11 07:33:06;;;;;;;90.00;19.50;;;;;;;;;;5091754;28;20316;-67
2022/01/11 07:35:34;;;;;;;95.72;20.23;;;;;;;;;;5091604;28;20205;-67
2022/01/11 07:38:01;;;;;;;85.05;19.33;;;;;;;;;;5094409;28;20207;-67
2022/01/11 07:40:28;;;;;;;79.57;17.98;;;;;;;;;;5095401;28;20266;-67
2022/01/11 07:42:55;;;;;;;82.75;17.98;;;;;;;;;;5095312;28;20229;-67
2022/01/11 07:45:22;;;;;;;82.65;19.58;;;;;;;;;;5095484;28;20296;-67
2022/01/11 07:47:49;;;;;;;92.95;19.40;;;;;;;;;;5095233;28;20631;-67
2022/01/11 07:50:19;;;;;;;89.93;18.60;;;;;;;;;;5095338;28;20205;-67
2022/01/11 07:52:46;;;;;;;91.05;19.05;;;;;;;;;;5095216;28;20243;-67
2022/01/11 07:55:13;;;;;;;97.35;23.60;;;;;;;;;;5095302;28;20300;-67
2022/01/11 07:57:40;;;;;;;97.28;22.08;;;;;;;;;;5094710;28;20225;-67
2022/01/11 08:00:08;;;;;;;92.57;21.85;;;;;;;;;;5095313;28;20295;-67
2022/01/11 08:02:36;;;;;;;93.32;22.95;;;;;;;;;;5095034;28;20765;-67
2022/01/11 08:05:03;;;;;;;93.25;23.80;;;;;;;;;;5098915;28;20228;-67
2022/01/11 08:07:32;;;;;;;89.53;22.83;;;;;;;;;;5115329;28;20296;-66
2022/01/11 08:09:59;;;;;;;93.40;23.92;;;;;;;;;;5115393;28;20208;-67
2022/01/11 08:12:26;;;;;;;90.90;23.38;;;;;;;;;;5115194;27;20252;-67
2022/01/11 08:14:53;;;;;;;90.25;22.88;;;;;;;;;;5115074;28;20214;-67
2022/01/11 08:17:21;;;;;;;91.63;22.98;;;;;;;;;;5115126;28;20632;-67
2022/01/11 08:19:48;;;;;;;95.85;24.55;;;;;;;;;;5115450;28;20204;-67
2022/01/11 08:22:15;;;;;;;89.32;20.95;;;;;;;;;;5115005;28;20224;-67
2022/01/11 08:24:44;;;;;;;94.85;22.27;;;;;;;;;;5115135;28;20204;-67
2022/01/11 08:27:12;;;;;;;93.57;21.05;;;;;;;;;;5115185;28;20261;-67
2022/01/11 08:29:42;;;;;;;93.55;22.70;;;;;;;;;;5115709;28;20541;-67
2022/01/11 08:32:09;;;;;;;100.18;21.38;;;;;;;;;;5115067;28;20227;-67
2022/01/11 08:34:36;;;;;;;89.68;22.27;;;;;;;;;;5115980;27;20652;-66
2022/01/11 08:37:04;;;;;;;97.82;21.63;;;;;;;;;;5116600;28;20704;-65
2022/01/11 08:39:32;;;;;;;93.40;23.50;;;;;;;;;;5115138;28;20583;-65
2022/01/11 08:42:00;;;;;;;89.97;24.25;;;;;;;;;;5115023;28;20228;-64
2022/01/11 08:44:28;;;;;;;87.28;19.95;;;;;;;;;;5115074;28;20323;-64
2022/01/11 08:46:55;;;;;;;87.53;20.63;;;;;;;;;;5114342;27;20200;-63
2022/01/11 08:49:23;;;;;;;87.45;20.50;;;;;;;;;;5115618;28;20625;-66
2022/01/11 08:51:50;;;;;;;92.15;20.80;;;;;;;;;;5120212;28;20226;-65
2022/01/11 08:54:23;;;;;;;92.15;19.25;;;;;;;;;;5116760;28;20711;-66
2022/01/11 08:56:50;;;;;;;91.20;21.95;;;;;;;;;;5118670;28;20691;-66
2022/01/11 08:59:18;;;;;;;88.40;22.23;;;;;;;;;;5115973;28;20743;-64
2022/01/11 09:01:46;;;;;;;91.82;20.65;;;;;;;;;;5114132;28;20603;-66
2022/01/11 09:04:13;;;;;;;95.32;21.48;;;;;;;;;;5114302;28;20204;-66
2022/01/11 09:06:40;;;;;;;90.95;21.08;;;;;;;;;;5116242;28;20209;-65
2022/01/11 09:09:07;;;;;;;86.40;20.98;;;;;;;;;;5114352;28;20307;-64
2022/01/11 09:11:34;;;;;;;87.57;20.92;;;;;;;;;;5114996;28;20228;-65
2022/01/11 09:14:01;;;;;;;88.32;20.35;;;;;;;;;;5116224;28;20698;-65
2022/01/11 09:16:30;;;;;;;87.28;20.08;;;;;;;;;;5115124;28;20317;-66
2022/01/11 09:18:57;;;;;;;89.95;21.10;;;;;;;;;;5113702;28;20204;-64
2022/01/11 09:21:24;;;;;;;90.78;20.08;;;;;;;;;;5115123;28;20319;-66
2022/01/11 09:23:51;;;;;;;87.80;21.95;;;;;;;;;;5114752;28;20204;-67
2022/01/11 09:26:19;;;;;;;85.80;19.73;;;;;;;;;;5114464;28;20203;-67
2022/01/11 09:28:46;;;;;;;89.03;21.92;;;;;;;;;;5114180;28;20208;-65
2022/01/11 09:31:13;;;;;;;84.07;19.95;;;;;;;;;;5113522;28;20220;-65
2022/01/11 09:33:42;;;;;;;93.68;21.17;;;;;;;;;;5114703;28;20208;-65
2022/01/11 09:36:09;;;;;;;88.15;19.10;;;;;;;;;;5114995;28;20293;-64
2022/01/11 09:38:36;;;;;;;85.93;20.75;;;;;;;;;;5114436;28;20672;-66
2022/01/11 09:41:04;;;;;;;82.43;19.60;;;;;;;;;;5116712;28;20201;-66
2022/01/11 09:43:31;;;;;;;92.68;20.42;;;;;;;;;;5114823;28;20633;-66
2022/01/11 09:45:58;;;;;;;85.35;20.92;;;;;;;;;;5114368;28;20211;-67
2022/01/11 09:48:27;;;;;;;93.82;20.15;;;;;;;;;;5115557;28;20207;-67
2022/01/11 09:50:56;;;;;;;81.75;19.48;;;;;;;;;;5117161;28;20349;-67
2022/01/11 09:53:24;;;;;;;87.75;21.58;;;;;;;;;;5122137;28;20204;-65
2022/01/11 09:55:51;;;;;;;86.78;18.75;;;;;;;;;;5119111;28;20272;-64
2022/01/11 09:58:18;;;;;;;78.85;17.40;;;;;;;;;;5120226;28;20786;-65
2022/01/11 10:00:45;;;;;;;82.43;18.25;;;;;;;;;;5118446;28;20208;-66
2022/01/11 10:03:14;;;;;;;92.95;19.23;;;;;;;;;;5119688;28;20286;-66
2022/01/11 10:05:41;;;;;;;86.75;18.77;;;;;;;;;;5119135;28;20299;-66
2022/01/11 10:08:23;;;;;;;81.72;19.35;;;;;;;;;;5115738;28;20311;-65
2022/01/11 10:10:52;;;;;;;84.97;19.08;;;;;;;;;;5115599;28;20203;-66
2022/01/11 10:13:32;;;;;;;90.32;18.48;;;;;;;;;;5115756;28;20211;-66
2022/01/11 10:16:14;;;;;;;83.38;18.77;;;;;;;;;;5115751;28;20271;-66
2022/01/11 10:18:42;;;;;;;82.57;17.67;;;;;;;;;;5115286;28;20291;-66
2022/01/11 10:21:24;;;;;;;81.30;17.35;;;;;;;;;;5115581;28;20704;-65
2022/01/11 10:23:52;;;;;;;81.68;17.60;;;;;;;;;;5119575;28;20208;-66
2022/01/11 10:26:41;;;;;;;84.00;18.92;;;;;;;;;;5117588;28;20232;-67
2022/01/11 10:29:23;;;;;;;79.13;17.20;;;;;;;;;;5114742;28;20211;-66
2022/01/11 10:31:51;;;;;;;86.07;19.33;;;;;;;;;;5114222;28;20224;-66
2022/01/11 10:34:26;;;;;;;79.63;17.05;;;;;;;;;;5116479;28;20480;-66
2022/01/11 10:36:53;;;;;;;78.10;17.30;;;;;;;;;;5117376;28;20230;-66
2022/01/11 10:39:29;;;;;;;78.72;16.45;;;;;;;;;;5117114;28;20502;-67
2022/01/11 10:41:58;;;;;;;80.23;15.50;;;;;;;;;;5117322;28;20263;-66
2022/01/11 10:44:43;;;;;;;80.47;16.33;;;;;;;;;;5117018;28;20446;-66
2022/01/11 10:47:10;;;;;;;80.60;16.10;;;;;;;;;;5116993;28;20454;-66
2022/01/11 10:49:37;;;;;;;85.10;16.03;;;;;;;;;;5118871;28;20541;-68
2022/01/11 10:52:25;;;;;;;80.80;14.60;;;;;;;;;;5118574;28;20512;-68
2022/01/11 10:54:54;;;;;;;80.77;16.90;;;;;;;;;;5113205;28;20565;-68
2022/01/11 10:57:23;;;;;;;73.50;13.80;;;;;;;;;;5117843;28;20558;-68
2022/01/11 11:00:11;;;;;;;80.90;16.03;;;;;;;;;;5118188;28;20529;-68
2022/01/11 11:02:38;;;;;;;84.07;15.30;;;;;;;;;;5115771;28;20916;-68
2022/01/11 11:05:24;;;;;;;75.83;14.83;;;;;;;;;;5117712;28;20454;-67
2022/01/11 11:07:55;;;;;;;75.87;15.53;;;;;;;;;;5117502;28;20446;-68
2022/01/11 11:10:31;;;;;;;78.00;16.00;;;;;;;;;;5117242;28;20529;-68
2022/01/11 11:12:58;;;;;;;81.63;16.30;;;;;;;;;;5120721;28;20473;-67
2022/01/11 11:15:29;;;;;;;79.47;15.67;;;;;;;;;;5120205;28;20477;-68
2022/01/11 11:17:56;;;;;;;76.53;16.00;;;;;;;;;;5117871;28;20583;-67
2022/01/11 11:20:24;;;;;;;78.97;14.43;;;;;;;;;;5117491;28;20446;-68
2022/01/11 11:22:51;;;;;;;72.73;13.40;;;;;;;;;;5116239;28;20909;-68
2022/01/11 11:25:19;;;;;;;76.07;14.60;;;;;;;;;;5116586;28;20498;-67
2022/01/11 11:27:47;;;;;;;75.57;14.73;;;;;;;;;;5118803;27;20465;-67
2022/01/11 11:30:14;;;;;;;77.83;14.30;;;;;;;;;;5117077;28;20533;-67
2022/01/11 11:32:42;;;;;;;73.43;13.30;;;;;;;;;;5117185;28;20465;-66
2022/01/11 11:35:10;;;;;;;74.90;15.20;;;;;;;;;;5117532;28;20505;-68
2022/01/11 11:37:39;;;;;;;76.37;15.57;;;;;;;;;;5118338;27;20847;-69
2022/01/11 11:40:08;;;;;;;78.97;14.83;;;;;;;;;;5116460;28;20484;-68
2022/01/11 11:42:35;;;;;;;77.30;15.53;;;;;;;;;;5115558;28;20475;-68
2022/01/11 11:45:15;;;;;;;72.30;12.83;;;;;;;;;;5115885;28;20541;-68
2022/01/11 11:47:42;;;;;;;73.87;12.70;;;;;;;;;;5115577;28;20446;-68
2022/01/11 11:50:13;;;;;;;72.90;12.73;;;;;;;;;;5115643;28;20456;-68
2022/01/11 11:52:42;;;;;;;71.97;11.73;;;;;;;;;;5116304;27;20461;-68
2022/01/11 11:55:11;;;;;;;72.80;10.90;;;;;;;;;;5115348;28;20445;-68
2022/01/11 11:57:40;;;;;;;73.13;11.90;;;;;;;;;;5117225;28;20486;-68
2022/01/11 12:00:11;;;;;;;67.80;10.57;;;;;;;;;;5116759;28;20449;-68
2022/01/11 12:02:39;;;;;;;71.78;9.60;;;;;;;;;;5115662;28;20560;-68
2022/01/11 12:05:07;;;;;;;70.50;10.40;;;;;;;;;;5115474;28;20699;-68
2022/01/11 12:07:38;;;;;;;65.90;6.30;;;;;;;;;;5115326;28;20520;-68
2022/01/11 12:10:08;;;;;;;61.27;5.93;;;;;;;;;;5116060;28;20457;-68
2022/01/11 12:12:49;;;;;;;61.53;4.10;;;;;;;;;;5115592;28;20556;-68
2022/01/11 12:15:35;;;;;;;59.00;3.77;;;;;;;;;;5114829;28;20464;-68
2022/01/11 12:18:16;;;;;;;60.70;3.77;;;;;;;;;;5115643;28;20492;-68
2022/01/11 12:20:45;;;;;;;60.10;4.33;;;;;;;;;;5115820;28;20993;-66
2022/01/11 12:23:20;;;;;;;61.90;4.43;;;;;;;;;;5114364;28;20999;-66
2022/01/11 12:25:50;;;;;;;59.53;3.40;;;;;;;;;;5117191;28;20800;-66
2022/01/11 12:28:19;;;;;;;62.60;4.45;;;;;;;;;;5115566;28;20520;-66
2022/01/11 12:30:46;;;;;;;60.50;4.20;;;;;;;;;;5115164;28;20299;-66
2022/01/11 12:33:16;;;;;;;59.17;3.83;;;;;;;;;;5116977;28;20448;-66
2022/01/11 12:36:01;;;;;;;58.97;3.58;;;;;;;;;;5115827;28;20450;-67
2022/01/11 12:38:29;;;;;;;60.47;4.60;;;;;;;;;;5115504;28;20240;-67
2022/01/11 12:40:57;;;;;;;65.67;7.27;;;;;;;;;;5117471;28;20449;-67
2022/01/11 12:43:37;;;;;;;70.30;9.63;;;;;;;;;;5117613;28;20446;-67
2022/01/11 12:46:06;;;;;;;73.35;9.15;;;;;;;;;;5116969;28;20457;-67
2022/01/11 12:48:53;;;;;;;67.40;8.70;;;;;;;;;;5095773;28;20216;-67
2022/01/11 12:51:26;;;;;;;61.47;5.70;;;;;;;;;;5095784;28;20221;-67
2022/01/11 12:54:08;;;;;;;61.10;4.97;;;;;;;;;;5096012;28;20241;-67
2022/01/11 12:56:36;;;;;;;60.80;4.68;;;;;;;;;;5095834;28;20205;-67
2022/01/11 12:59:04;;;;;;;59.95;4.40;;;;;;;;;;5096947;28;20260;-67
2022/01/11 13:01:31;;;;;;;60.90;4.45;;;;;;;;;;5101397;28;20645;-68
2022/01/11 13:04:00;;;;;;;59.80;4.40;;;;;;;;;;5105423;28;20244;-67
2022/01/11 13:06:31;;;;;;;59.30;4.22;;;;;;;;;;5104258;28;20247;-67
2022/01/11 13:08:59;;;;;;;62.33;5.05;;;;;;;;;;5102052;28;20219;-66
2022/01/11 13:11:26;;;;;;;60.55;4.70;;;;;;;;;;5101116;28;20229;-67
2022/01/11 13:14:16;;;;;;;60.97;4.43;;;;;;;;;;5100724;28;20344;-66
2022/01/11 13:16:44;;;;;;;61.88;5.22;;;;;;;;;;5098301;28;20362;-66
2022/01/11 13:19:11;;;;;;;63.50;5.33;;;;;;;;;;5097596;28;20224;-65
2022/01/11 13:21:39;;;;;;;61.25;5.63;;;;;;;;;;5096364;28;21145;-67
2022/01/11 13:24:16;;;;;;;60.45;5.00;;;;;;;;;;5094455;28;20204;-65
2022/01/11 13:26:43;;;;;;;60.55;4.70;;;;;;;;;;5099191;28;20192;-65
2022/01/11 13:29:10;;;;;;;59.80;4.32;;;;;;;;;;5094569;28;20201;-66
2022/01/11 13:31:40;;;;;;;59.80;4.43;;;;;;;;;;5096917;28;20233;-66
2022/01/11 13:34:08;;;;;;;61.05;4.63;;;;;;;;;;5095365;28;20209;-67
2022/01/11 13:36:38;;;;;;;61.00;4.15;;;;;;;;;;5096671;28;20273;-66
2022/01/11 13:39:08;;;;;;;60.38;5.05;;;;;;;;;;5096978;28;20216;-67
2022/01/11 13:41:36;;;;;;;60.38;4.20;;;;;;;;;;5098664;28;20324;-66
2022/01/11 13:44:05;;;;;;;61.15;4.78;;;;;;;;;;5097231;28;20201;-68
2022/01/11 13:46:32;;;;;;;60.15;4.53;;;;;;;;;;5095656;28;20205;-66
2022/01/11 13:48:59;;;;;;;59.67;4.60;;;;;;;;;;5097494;28;20201;-65
2022/01/11 13:51:27;;;;;;;59.67;4.95;;;;;;;;;;5097164;28;20229;-67
2022/01/11 13:54:01;;;;;;;59.83;4.40;;;;;;;;;;5097621;28;20207;-67
2022/01/11 13:56:33;;;;;;;61.03;4.65;;;;;;;;;;5095199;28;20787;-66
2022/01/11 13:59:01;;;;;;;61.40;5.18;;;;;;;;;;5096830;28;20255;-65
2022/01/11 14:01:28;;;;;;;61.25;4.65;;;;;;;;;;5094782;28;20221;-67
2022/01/11 14:04:05;;;;;;;61.45;5.43;;;;;;;;;;5100376;28;20638;-65
2022/01/11 14:06:40;;;;;;;60.78;5.10;;;;;;;;;;5100030;28;20192;-67
2022/01/11 14:09:12;;;;;;;62.13;5.47;;;;;;;;;;5096875;28;20208;-67
2022/01/11 14:11:51;;;;;;;60.85;4.95;;;;;;;;;;5100363;28;20266;-66
2022/01/11 14:14:23;;;;;;;65.35;6.72;;;;;;;;;;5097796;28;20213;-65
2022/01/11 14:16:51;;;;;;;60.40;5.05;;;;;;;;;;5098062;28;20252;-66
2022/01/11 14:19:19;;;;;;;62.80;6.40;;;;;;;;;;5095032;28;20286;-67
2022/01/11 14:21:50;;;;;;;62.78;6.75;;;;;;;;;;5096521;28;20227;-66
2022/01/11 14:24:17;;;;;;;61.95;6.15;;;;;;;;;;5096250;28;20201;-65
2022/01/11 14:26:45;;;;;;;63.65;6.38;;;;;;;;;;5094953;28;20205;-66
2022/01/11 14:29:17;;;;;;;62.55;5.75;;;;;;;;;;5096459;28;20258;-66
2022/01/11 14:31:44;;;;;;;62.30;5.82;;;;;;;;;;5094033;28;20700;-65